| time (UTC) | temp F | wind direction | speed knots | gust knots | rain 1hr in | rain 24hr in | rain mn in | humidity % | barometer mb |
| 20260502212915 | 65 | 283 | 8.7 | 11.3 | 0.00 | 0.00 | 0.00 | 34 | 1011.9 |
| 20260502212413 | 65 | 270 | 5.2 | 7.8 | 0.00 | 0.00 | 0.00 | 33 | 1012.0 |
| 20260502211910 | 65 | 215 | 3.5 | 5.2 | 0.00 | 0.00 | 0.00 | 34 | 1011.8 |
| 20260502211405 | 65 | 256 | 6.1 | 7.8 | 0.00 | 0.00 | 0.00 | 33 | 1012.0 |
| 20260502210903 | 65 | 239 | 4.3 | 6.1 | 0.00 | 0.00 | 0.00 | 33 | 1012.1 |
| 20260502210400 | 67 | 229 | 9.6 | 14.8 | 0.00 | 0.00 | 0.00 | 31 | 1012.2 |
| 20260502205857 | 67 | 227 | 4.3 | 5.2 | 0.00 | 0.00 | 0.00 | 32 | 1012.2 |
| 20260502205353 | 67 | 258 | 5.2 | 6.1 | 0.00 | 0.00 | 0.00 | 33 | 1012.2 |
| 20260502204850 | 66 | 262 | 4.3 | 5.2 | 0.00 | 0.00 | 0.00 | 34 | 1012.3 |
| 20260502204348 | 66 | 273 | 3.5 | 4.3 | 0.00 | 0.00 | 0.00 | 33 | 1012.5 |
| 20260502203845 | 66 | 239 | 5.2 | 7.8 | 0.00 | 0.00 | 0.00 | 34 | 1012.8 |
| 20260502203343 | 65 | 209 | 1.7 | 2.6 | 0.00 | 0.00 | 0.00 | 34 | 1012.8 |
| 20260502202838 | 64 | 284 | 4.3 | 5.2 | 0.00 | 0.00 | 0.00 | 34 | 1012.9 |
| 20260502202336 | 65 | 259 | 4.3 | 6.1 | 0.00 | 0.00 | 0.00 | 34 | 1013.1 |
| 20260502201833 | 66 | 311 | 2.6 | 4.3 | 0.00 | 0.00 | 0.00 | 34 | 1013.2 |
| 20260502201329 | 64 | 256 | 2.6 | 5.2 | 0.00 | 0.00 | 0.00 | 36 | 1013.4 |
| 20260502200826 | 64 | 283 | 4.3 | 5.2 | 0.00 | 0.00 | 0.00 | 34 | 1013.5 |
| 20260502200321 | 64 | 201 | 4.3 | 6.1 | 0.00 | 0.00 | 0.00 | 34 | 1013.6 |
| 20260502195820 | 64 | 201 | 6.1 | 7.8 | 0.00 | 0.00 | 0.00 | 33 | 1013.6 |
| 20260502195316 | 64 | 231 | 6.1 | 7.8 | 0.00 | 0.00 | 0.00 | 34 | 1013.8 |
| 20260502194813 | 64 | 213 | 3.5 | 4.3 | 0.00 | 0.00 | 0.00 | 37 | 1013.8 |
| 20260502194310 | 64 | 195 | 2.6 | 4.3 | 0.00 | 0.00 | 0.00 | 35 | 1013.9 |
| 20260502193805 | 63 | 189 | 4.3 | 5.2 | 0.00 | 0.00 | 0.00 | 36 | 1014.3 |
| 20260502193303 | 63 | 323 | 4.3 | 5.2 | 0.00 | 0.00 | 0.00 | 33 | 1014.0 |
| 20260502192758 | 63 | 267 | 7.8 | 8.7 | 0.00 | 0.00 | 0.00 | 34 | 1014.4 |
| 20260502192256 | 63 | 212 | 3.5 | 4.3 | 0.00 | 0.00 | 0.00 | 35 | 1014.1 |
| 20260502191752 | 62 | 295 | 0.9 | 0.9 | 0.00 | 0.00 | 0.00 | 35 | 1014.4 |
| 20260502191250 | 62 | 207 | 5.2 | 6.1 | 0.00 | 0.00 | 0.00 | 34 | 1014.5 |
| 20260502190747 | 62 | 191 | 6.1 | 7.8 | 0.00 | 0.00 | 0.00 | 35 | 1014.6 |
| 20260502190244 | 62 | 214 | 4.3 | 5.2 | 0.00 | 0.00 | 0.00 | 36 | 1014.7 |
| 20260502185739 | 62 | 243 | 3.5 | 4.3 | 0.00 | 0.00 | 0.00 | 38 | 1014.9 |
| 20260502185236 | 62 | 176 | 2.6 | 2.6 | 0.00 | 0.00 | 0.00 | 35 | 1014.9 |
| 20260502184732 | 62 | 256 | 4.3 | 5.2 | 0.00 | 0.00 | 0.00 | 36 | 1015.1 |
| 20260502184228 | 61 | 243 | 4.3 | 6.1 | 0.00 | 0.00 | 0.00 | 36 | 1015.2 |
| 20260502183725 | 62 | 215 | 6.1 | 7.0 | 0.00 | 0.00 | 0.00 | 36 | 1015.3 |
| 20260502183220 | 61 | 167 | 5.2 | 6.1 | 0.00 | 0.00 | 0.00 | 35 | 1015.4 |
| 20260502182716 | 60 | 213 | 5.2 | 6.1 | 0.00 | 0.00 | 0.00 | 36 | 1015.2 |
| 20260502182211 | 60 | 234 | 4.3 | 5.2 | 0.00 | 0.00 | 0.00 | 36 | 1015.5 |
| 20260502181708 | 59 | 232 | 3.5 | 4.3 | 0.00 | 0.00 | 0.00 | 37 | 1015.5 |
| 20260502181203 | 59 | 203 | 4.3 | 7.0 | 0.00 | 0.00 | 0.00 | 37 | 1015.8 |
| 20260502180659 | 60 | 271 | 3.5 | 5.2 | 0.00 | 0.00 | 0.00 | 39 | 1015.6 |
| 20260502180156 | 59 | 215 | 3.5 | 6.1 | 0.00 | 0.00 | 0.00 | 37 | 1015.8 |
| 20260502170120 | 57 | 188 | 4.3 | 5.2 | 0.00 | 0.00 | 0.00 | 36 | 1017.1 |
| 20260502164101 | 57 | 220 | 1.7 | 2.6 | 0.00 | 0.00 | 0.00 | 38 | 1017.1 |
| 20260502163556 | 57 | 323 | 2.6 | 4.3 | 0.00 | 0.00 | 0.00 | 38 | 1017.1 |
| 20260502163054 | 57 | 197 | 2.6 | 4.3 | 0.00 | 0.00 | 0.00 | 37 | 1017.4 |
| 20260502162551 | 56 | 147 | 3.5 | 5.2 | 0.00 | 0.00 | 0.00 | 36 | 1017.5 |
| 20260502162048 | 56 | 241 | 2.6 | 4.3 | 0.00 | 0.00 | 0.00 | 37 | 1017.4 |
| 20260502161545 | 55 | 283 | 5.2 | 6.1 | 0.00 | 0.00 | 0.00 | 37 | 1017.6 |
| 20260502161042 | 55 | 225 | 6.1 | 7.8 | 0.00 | 0.00 | 0.00 | 38 | 1017.6 |
| 20260502160540 | 56 | 203 | 2.6 | 4.3 | 0.00 | 0.00 | 0.00 | 39 | 1017.6 |
| 20260502151953 | 54 | 246 | 2.6 | 4.3 | 0.00 | 0.00 | 0.00 | 41 | 1018.2 |
| 20260502151450 | 54 | 291 | 3.5 | 6.1 | 0.00 | 0.00 | 0.00 | 42 | 1018.1 |
| 20260502150947 | 53 | 217 | 2.6 | 2.6 | 0.00 | 0.00 | 0.00 | 42 | 1018.0 |
| 20260502150444 | 54 | 271 | 4.3 | 5.2 | 0.00 | 0.00 | 0.00 | 41 | 1018.1 |
| 20260502130329 | 44 | 288 | 1.7 | 1.7 | 0.00 | 0.00 | 0.00 | 60 | 1018.8 |
| 20260502123815 | 42 | 280 | 1.7 | 4.3 | 0.00 | 0.00 | 0.00 | 63 | 1018.8 |
| 20260502123312 | 42 | 262 | 2.6 | 2.6 | 0.00 | 0.00 | 0.00 | 64 | 1019.0 |
| 20260502122809 | 41 | 296 | 1.7 | 1.7 | 0.00 | 0.00 | 0.00 | 65 | 1019.0 |
| 20260502122306 | 41 | 278 | 2.6 | 2.6 | 0.00 | 0.00 | 0.00 | 65 | 1018.7 |
| 20260502121803 | 40 | 277 | 2.6 | 2.6 | 0.00 | 0.00 | 0.00 | 66 | 1018.7 |
| 20260502121301 | 40 | 285 | 0.9 | 0.9 | 0.00 | 0.00 | 0.00 | 67 | 1018.9 |
| 20260502120757 | 39 | 267 | 1.7 | 2.6 | 0.00 | 0.00 | 0.00 | 68 | 1018.7 |
| 20260502120254 | 39 | 287 | 0.0 | 0.9 | 0.00 | 0.00 | 0.00 | 69 | 1018.8 |
| 20260502115752 | 38 | 282 | 0.9 | 0.9 | 0.00 | 0.00 | 0.00 | 70 | 1018.7 |
| 20260502115248 | 38 | 285 | 0.9 | 0.9 | 0.00 | 0.00 | 0.00 | 70 | 1018.7 |
| 20260502114744 | 38 | 301 | 0.9 | 0.9 | 0.00 | 0.00 | 0.00 | 71 | 1018.8 |
| 20260502114241 | 37 | 272 | 1.7 | 1.7 | 0.00 | 0.00 | 0.00 | 71 | 1018.9 |
| 20260502113738 | 37 | 296 | 1.7 | 1.7 | 0.00 | 0.00 | 0.00 | 72 | 1018.7 |
| 20260502113236 | 37 | 289 | 1.7 | 1.7 | 0.00 | 0.00 | 0.00 | 72 | 1019.0 |
| 20260502112734 | 37 | 280 | 0.9 | 1.7 | 0.00 | 0.00 | 0.00 | 71 | 1018.6 |
| 20260502112231 | 37 | 274 | 1.7 | 1.7 | 0.00 | 0.00 | 0.00 | 71 | 1018.8 |
| 20260502111728 | 37 | 300 | 1.7 | 1.7 | 0.00 | 0.00 | 0.00 | 71 | 1018.8 |
| 20260502111226 | 37 | 296 | 0.9 | 0.9 | 0.00 | 0.00 | 0.00 | 70 | 1018.6 |
| 20260502110723 | 37 | 278 | 1.7 | 1.7 | 0.00 | 0.00 | 0.00 | 70 | 1018.7 |
| 20260502110221 | 37 | 279 | 2.6 | 2.6 | 0.00 | 0.00 | 0.00 | 69 | 1018.8 |
| 20260502105719 | 38 | 273 | 1.7 | 1.7 | 0.00 | 0.00 | 0.00 | 69 | 1018.6 |
| 20260502105215 | 38 | 293 | 0.9 | 1.7 | 0.00 | 0.00 | 0.00 | 68 | 1018.7 |
| 20260502104713 | 38 | 291 | 2.6 | 2.6 | 0.00 | 0.00 | 0.00 | 68 | 1018.7 |
| 20260502104210 | 38 | 295 | 0.9 | 1.7 | 0.00 | 0.00 | 0.00 | 68 | 1018.6 |
| 20260502103707 | 38 | 286 | 0.9 | 0.9 | 0.00 | 0.00 | 0.00 | 68 | 1018.5 |
| 20260502103205 | 38 | 284 | 1.7 | 1.7 | 0.00 | 0.00 | 0.00 | 67 | 1018.6 |
| 20260502102702 | 38 | 281 | 0.9 | 1.7 | 0.00 | 0.00 | 0.00 | 67 | 1018.5 |
| 20260502102158 | 38 | 286 | 0.9 | 0.9 | 0.00 | 0.00 | 0.00 | 67 | 1018.6 |
| 20260502101656 | 38 | 305 | 0.0 | 0.9 | 0.00 | 0.00 | 0.00 | 66 | 1018.6 |
| 20260502101154 | 38 | 299 | 0.0 | 0.9 | 0.00 | 0.00 | 0.00 | 66 | 1018.7 |
| 20260502100652 | 39 | 294 | 1.7 | 1.7 | 0.00 | 0.00 | 0.00 | 66 | 1018.4 |
| 20260502100150 | 39 | 279 | 0.9 | 1.7 | 0.00 | 0.00 | 0.00 | 65 | 1018.5 |
| 20260502091125 | 39 | 278 | 0.9 | 0.9 | 0.00 | 0.00 | 0.00 | 66 | 1018.5 |
| 20260502090621 | 39 | 274 | 0.9 | 0.9 | 0.00 | 0.00 | 0.00 | 66 | 1018.4 |
| 20260502090119 | 39 | 308 | 0.0 | 0.0 | 0.00 | 0.00 | 0.00 | 65 | 1018.3 |
| 20260502071516 | 42 | 299 | 0.0 | 0.0 | 0.00 | 0.00 | 0.00 | 59 | 1018.5 |
| 20260502071014 | 42 | 305 | 0.9 | 0.9 | 0.00 | 0.00 | 0.00 | 58 | 1018.8 |
| 20260502070512 | 42 | 252 | 1.7 | 1.7 | 0.00 | 0.00 | 0.00 | 58 | 1018.6 |
| 20260502070010 | 42 | 297 | 0.9 | 0.9 | 0.00 | 0.00 | 0.00 | 57 | 1018.7 |
| 20260502065508 | 43 | 293 | 0.9 | 1.7 | 0.00 | 0.00 | 0.00 | 56 | 1018.7 |
| 20260502065006 | 43 | 314 | 0.9 | 0.9 | 0.00 | 0.00 | 0.00 | 55 | 1018.8 |
| 20260502064504 | 43 | 274 | 1.7 | 2.6 | 0.00 | 0.00 | 0.00 | 55 | 1018.8 |
| 20260502064000 | 43 | 265 | 4.3 | 5.2 | 0.00 | 0.00 | 0.00 | 54 | 1018.8 |
| 20260502063459 | 43 | 275 | 2.6 | 2.6 | 0.00 | 0.00 | 0.00 | 54 | 1018.7 |
| 20260502062956 | 43 | 304 | 1.7 | 2.6 | 0.00 | 0.00 | 0.00 | 54 | 1018.8 |
| 20260502062452 | 43 | 280 | 0.9 | 1.7 | 0.00 | 0.00 | 0.00 | 55 | 1019.0 |
| 20260502061951 | 43 | 243 | 4.3 | 4.3 | 0.00 | 0.00 | 0.00 | 55 | 1018.9 |
| 20260502061449 | 43 | 291 | 0.9 | 1.7 | 0.00 | 0.00 | 0.00 | 55 | 1018.8 |
| 20260502060944 | 43 | 287 | 2.6 | 2.6 | 0.00 | 0.00 | 0.00 | 55 | 1018.8 |
| 20260502060440 | 43 | 274 | 1.7 | 2.6 | 0.00 | 0.00 | 0.00 | 56 | 1018.8 |
| 20260502055937 | 43 | 264 | 1.7 | 2.6 | 0.00 | 0.00 | 0.00 | 56 | 1018.9 |
| 20260502055435 | 43 | 231 | 1.7 | 1.7 | 0.00 | 0.00 | 0.00 | 55 | 1018.7 |
| 20260502054929 | 43 | 270 | 3.5 | 4.3 | 0.00 | 0.00 | 0.00 | 54 | 1018.9 |
| 20260502054427 | 43 | 303 | 0.9 | 0.9 | 0.00 | 0.00 | 0.00 | 54 | 1019.0 |
| 20260502053924 | 43 | 284 | 0.9 | 0.9 | 0.00 | 0.00 | 0.00 | 54 | 1018.8 |
| 20260502053421 | 43 | 313 | 1.7 | 2.6 | 0.00 | 0.00 | 0.00 | 54 | 1018.8 |
| 20260502052918 | 43 | 261 | 2.6 | 4.3 | 0.00 | 0.00 | 0.00 | 54 | 1018.9 |
| 20260502052416 | 43 | 269 | 2.6 | 2.6 | 0.00 | 0.00 | 0.00 | 53 | 1019.1 |
| 20260502051914 | 43 | 256 | 3.5 | 4.3 | 0.00 | 0.00 | 0.00 | 53 | 1018.9 |
| 20260502051412 | 43 | 297 | 1.7 | 1.7 | 0.00 | 0.00 | 0.00 | 53 | 1019.1 |
| 20260502050909 | 43 | 308 | 0.9 | 1.7 | 0.00 | 0.00 | 0.00 | 53 | 1019.0 |
| 20260502050405 | 43 | 323 | 0.9 | 0.9 | 0.00 | 0.00 | 0.00 | 53 | 1019.0 |
| 20260502045903 | 43 | 300 | 0.9 | 1.7 | 0.00 | 0.00 | 0.00 | 52 | 1019.1 |
| 20260502045359 | 44 | 310 | 0.9 | 0.9 | 0.00 | 0.00 | 0.00 | 51 | 1018.9 |
| 20260502044856 | 44 | 310 | 0.9 | 0.9 | 0.00 | 0.00 | 0.00 | 50 | 1019.0 |
| 20260502044352 | 44 | 278 | 2.6 | 2.6 | 0.00 | 0.00 | 0.00 | 50 | 1018.8 |
| 20260502043849 | 44 | 291 | 2.6 | 2.6 | 0.00 | 0.00 | 0.00 | 49 | 1018.8 |
| 20260502043347 | 44 | 280 | 2.6 | 2.6 | 0.00 | 0.00 | 0.00 | 50 | 1018.8 |
| 20260502042846 | 44 | 280 | 0.9 | 0.9 | 0.00 | 0.00 | 0.00 | 50 | 1018.7 |
| 20260502042343 | 44 | 290 | 1.7 | 1.7 | 0.00 | 0.00 | 0.00 | 49 | 1018.9 |
| 20260502041841 | 45 | 304 | 0.9 | 1.7 | 0.00 | 0.00 | 0.00 | 49 | 1018.8 |
| 20260502041338 | 44 | 282 | 2.6 | 2.6 | 0.00 | 0.00 | 0.00 | 50 | 1019.0 |
| 20260502040835 | 44 | 298 | 0.9 | 0.9 | 0.00 | 0.00 | 0.00 | 49 | 1018.8 |
| 20260502040332 | 44 | 289 | 1.7 | 1.7 | 0.00 | 0.00 | 0.00 | 49 | 1019.1 |
| 20260502035828 | 45 | 275 | 1.7 | 1.7 | 0.00 | 0.00 | 0.00 | 49 | 1018.9 |
| 20260502035325 | 45 | 293 | 1.7 | 1.7 | 0.00 | 0.00 | 0.00 | 49 | 1018.7 |
| 20260502034822 | 44 | 301 | 0.0 | 0.9 | 0.00 | 0.00 | 0.00 | 49 | 1018.9 |
| 20260502034321 | 45 | 311 | 0.9 | 0.9 | 0.00 | 0.00 | 0.00 | 48 | 1018.9 |
| 20260502033819 | 46 | 287 | 0.9 | 0.9 | 0.00 | 0.00 | 0.00 | 46 | 1018.7 |
| 20260502033316 | 45 | 289 | 1.7 | 1.7 | 0.00 | 0.00 | 0.00 | 46 | 1019.1 |
| 20260502032812 | 45 | 304 | 0.0 | 0.9 | 0.00 | 0.00 | 0.00 | 46 | 1019.1 |
| 20260502032308 | 45 | 299 | 0.9 | 0.9 | 0.00 | 0.00 | 0.00 | 46 | 1018.9 |
| 20260502031807 | 45 | 306 | 0.9 | 0.9 | 0.00 | 0.00 | 0.00 | 46 | 1019.0 |
| 20260502031304 | 46 | 301 | 0.9 | 0.9 | 0.00 | 0.00 | 0.00 | 46 | 1018.9 |
| 20260502030803 | 46 | 303 | 0.9 | 0.9 | 0.00 | 0.00 | 0.00 | 46 | 1018.9 |
| 20260502030300 | 46 | 311 | 0.0 | 0.9 | 0.00 | 0.00 | 0.00 | 46 | 1018.9 |
| 20260502025758 | 46 | 300 | 0.9 | 0.9 | 0.00 | 0.00 | 0.00 | 45 | 1019.0 |
| 20260502025255 | 46 | 304 | 0.9 | 1.7 | 0.00 | 0.00 | 0.00 | 46 | 1018.7 |
| 20260502024753 | 46 | 316 | 0.9 | 0.9 | 0.00 | 0.00 | 0.00 | 45 | 1018.9 |
| 20260502024250 | 46 | 313 | 0.9 | 0.9 | 0.00 | 0.00 | 0.00 | 44 | 1018.8 |
| 20260502023749 | 46 | 305 | 0.9 | 1.7 | 0.00 | 0.00 | 0.00 | 44 | 1019.0 |
| 20260502023246 | 46 | 299 | 0.9 | 0.9 | 0.00 | 0.00 | 0.00 | 44 | 1018.9 |
| 20260502022744 | 46 | 301 | 0.9 | 0.9 | 0.00 | 0.00 | 0.00 | 44 | 1018.8 |
| 20260502022239 | 47 | 310 | 0.9 | 0.9 | 0.00 | 0.00 | 0.00 | 44 | 1019.1 |
| 20260502021736 | 47 | 294 | 0.9 | 1.7 | 0.00 | 0.00 | 0.00 | 43 | 1018.8 |
| 20260502021234 | 47 | 294 | 1.7 | 1.7 | 0.00 | 0.00 | 0.00 | 43 | 1018.8 |
| 20260502020731 | 47 | 311 | 0.0 | 0.9 | 0.00 | 0.00 | 0.00 | 44 | 1018.5 |
| 20260502020228 | 47 | 310 | 0.9 | 0.9 | 0.00 | 0.00 | 0.00 | 44 | 1018.7 |
| 20260502015726 | 48 | 307 | 0.9 | 0.9 | 0.00 | 0.00 | 0.00 | 42 | 1018.6 |
| 20260502015222 | 48 | 298 | 0.9 | 0.9 | 0.00 | 0.00 | 0.00 | 42 | 1018.5 |
| 20260502014720 | 48 | 310 | 0.0 | 0.0 | 0.00 | 0.00 | 0.00 | 42 | 1018.5 |
| 20260502014216 | 48 | 292 | 0.9 | 0.9 | 0.00 | 0.00 | 0.00 | 42 | 1018.3 |
| 20260502013713 | 48 | 310 | 0.9 | 0.9 | 0.00 | 0.00 | 0.00 | 41 | 1018.3 |
| 20260502013208 | 48 | 292 | 0.9 | 0.9 | 0.00 | 0.00 | 0.00 | 40 | 1018.2 |
| 20260502012705 | 49 | 305 | 0.9 | 0.9 | 0.00 | 0.00 | 0.00 | 40 | 1018.3 |
| 20260502012203 | 49 | 310 | 0.9 | 0.9 | 0.00 | 0.00 | 0.00 | 40 | 1018.3 |
| 20260502011700 | 50 | 316 | 0.9 | 0.9 | 0.00 | 0.00 | 0.00 | 39 | 1018.4 |
| 20260502011155 | 50 | 327 | 0.9 | 0.9 | 0.00 | 0.00 | 0.00 | 37 | 1018.1 |
| 20260502010654 | 50 | 293 | 0.9 | 0.9 | 0.00 | 0.00 | 0.00 | 36 | 1018.3 |
| 20260502010149 | 51 | 284 | 1.7 | 1.7 | 0.00 | 0.00 | 0.00 | 35 | 1018.3 |
| 20260502005647 | 51 | 314 | 0.9 | 0.9 | 0.00 | 0.00 | 0.00 | 35 | 1018.3 |
| 20260502005145 | 51 | 309 | 0.9 | 1.7 | 0.00 | 0.00 | 0.00 | 35 | 1018.2 |
| 20260502004640 | 52 | 340 | 0.9 | 0.9 | 0.00 | 0.00 | 0.00 | 34 | 1018.3 |
| 20260502004137 | 52 | 283 | 4.3 | 5.2 | 0.00 | 0.00 | 0.00 | 33 | 1018.2 |
| 20260502003635 | 52 | 297 | 1.7 | 1.7 | 0.00 | 0.00 | 0.00 | 34 | 1018.4 |
| 20260502003132 | 52 | 338 | 1.7 | 1.7 | 0.00 | 0.00 | 0.00 | 35 | 1018.3 |
| 20260502002628 | 52 | 246 | 1.7 | 1.7 | 0.00 | 0.00 | 0.00 | 35 | 1018.2 |
| 20260502002126 | 53 | 324 | 0.9 | 1.7 | 0.00 | 0.00 | 0.00 | 33 | 1018.2 |
| 20260502001623 | 53 | 359 | 0.9 | 1.7 | 0.00 | 0.00 | 0.00 | 33 | 1018.4 |
| 20260502001120 | 53 | 308 | 0.9 | 1.7 | 0.00 | 0.00 | 0.00 | 33 | 1018.3 |
| 20260502000619 | 52 | 264 | 4.3 | 5.2 | 0.00 | 0.00 | 0.00 | 33 | 1018.4 |
| 20260502000116 | 53 | 301 | 0.9 | 0.9 | 0.00 | 0.00 | 0.00 | 33 | 1018.1 |
| 20260501235611 | 53 | 303 | 2.6 | 2.6 | 0.00 | 0.00 | 0.00 | 33 | 1018.2 |
| 20260501235107 | 54 | 311 | 4.3 | 5.2 | 0.00 | 0.00 | 0.00 | 31 | 1018.2 |
| 20260501234603 | 53 | 316 | 0.9 | 0.9 | 0.00 | 0.00 | 0.00 | 33 | 1018.4 |
| 20260501234101 | 53 | 325 | 2.6 | 4.3 | 0.00 | 0.00 | 0.00 | 32 | 1018.2 |
| 20260501233559 | 53 | 321 | 6.1 | 7.0 | 0.00 | 0.00 | 0.00 | 31 | 1018.3 |
| 20260501233055 | 53 | 279 | 2.6 | 4.3 | 0.00 | 0.00 | 0.00 | 32 | 1018.2 |
| 20260501232551 | 54 | 289 | 0.9 | 0.9 | 0.00 | 0.00 | 0.00 | 33 | 1018.4 |
| 20260501232049 | 53 | 344 | 0.9 | 1.7 | 0.00 | 0.00 | 0.00 | 32 | 1018.3 |
| 20260501231547 | 51 | 18 | 2.6 | 2.6 | 0.00 | 0.00 | 0.00 | 34 | 1018.3 |
| 20260501231045 | 52 | 348 | 3.5 | 4.3 | 0.00 | 0.00 | 0.00 | 34 | 1018.4 |
| 20260501230544 | 53 | 279 | 1.7 | 2.6 | 0.00 | 0.00 | 0.00 | 34 | 1018.3 |
| 20260501230041 | 53 | 344 | 2.6 | 4.3 | 0.00 | 0.00 | 0.00 | 33 | 1018.2 |
| 20260501225538 | 52 | 300 | 2.6 | 4.3 | 0.00 | 0.00 | 0.00 | 34 | 1018.3 |
| 20260501225034 | 52 | 310 | 1.7 | 1.7 | 0.00 | 0.00 | 0.00 | 34 | 1018.5 |
| 20260501224532 | 54 | 288 | 6.1 | 8.7 | 0.00 | 0.00 | 0.00 | 33 | 1018.4 |
| 20260501224029 | 54 | 354 | 0.9 | 0.9 | 0.00 | 0.00 | 0.00 | 34 | 1018.4 |
| 20260501223525 | 54 | 276 | 4.3 | 5.2 | 0.00 | 0.00 | 0.00 | 33 | 1018.2 |
| 20260501223021 | 53 | 284 | 6.1 | 7.0 | 0.00 | 0.00 | 0.00 | 32 | 1018.5 |
| 20260501222518 | 54 | 344 | 6.1 | 7.8 | 0.00 | 0.00 | 0.00 | 32 | 1018.4 |
| 20260501222015 | 55 | 327 | 0.9 | 1.7 | 0.00 | 0.00 | 0.00 | 32 | 1018.4 |
| 20260501221511 | 53 | 330 | 2.6 | 2.6 | 0.00 | 0.00 | 0.00 | 33 | 1018.3 |
| 20260501221009 | 52 | 356 | 0.9 | 0.9 | 0.00 | 0.00 | 0.00 | 36 | 1018.6 |
| 20260501220507 | 53 | 319 | 1.7 | 2.6 | 0.00 | 0.00 | 0.00 | 34 | 1018.4 |
| 20260501220003 | 52 | 294 | 2.6 | 2.6 | 0.00 | 0.00 | 0.00 | 32 | 1018.5 |
| 20260501215459 | 52 | 33 | 1.7 | 1.7 | 0.00 | 0.00 | 0.00 | 34 | 1018.3 |
| 20260501214955 | 51 | 326 | 2.6 | 4.3 | 0.00 | 0.00 | 0.00 | 35 | 1018.6 |
| 20260501214450 | 52 | 4 | 1.7 | 2.6 | 0.00 | 0.00 | 0.00 | 36 | 1018.2 |
| 20260501213946 | 51 | 316 | 2.6 | 4.3 | 0.00 | 0.00 | 0.00 | 34 | 1018.3 |
| 20260501213444 | 53 | 298 | 2.6 | 4.3 | 0.00 | 0.00 | 0.00 | 34 | 1018.4 |